• Join FlightAware (Why Join?)
  • Login
  • US Flag 
11:04PM EDT


 

Airport Tracker/Info


-or-


 

Live Flight TrackerFlight Track Log ✈ N72WP ✈ 14-Oct-2013 ✈ A08 - KPDK

Flight Track Log - Related Links

Times and Time Zones

All times are in EDT time to prevent confusion due to time zone crossing. See the N72WP flight status page for this flight to view local times or setup timezone preferences in your user account.

Time Position Orientation Groundspeed Altitude Reporting Facility
EDT Latitude Longitude Course Direction KTS MPH feet Rate Location/Type
02:06PM 32.5450 -87.2864 73° East 168 193 3,100  Level Atlanta Center
02:07PM 32.5561 -87.2572 66° East 120 138 3,800 720 Climbing Atlanta Center
02:08PM 32.5633 -87.2281 74° East 95 109 4,600 780 Climbing Atlanta Center
02:09PM 32.5683 -87.1961 79° East 95 109 5,400 720 Climbing Atlanta Center
02:10PM 32.5794 -87.1644 67° East 95 109 6,100 720 Climbing Atlanta Center
02:11PM 32.6386 -87.1065 73° East  Level Estimated
02:11PM 32.5844 -87.1325 79° East 95 109 6,900  Level Atlanta Center
02:12PM 32.5936 -87.1008 71° East 95 109 7,700 720 Climbing Atlanta Center
02:13PM 32.6006 -87.0692 75° East 95 109 8,400 660 Climbing Atlanta Center
02:14PM 32.6119 -87.0350 68° East 100 115 9,100 300 Climbing Atlanta Center
02:15PM 32.6214 -86.9858 77° East 116 133 9,000  Descending Atlanta Center
02:16PM 32.6331 -86.9344 75° East 141 162 9,100  Climbing Atlanta Center
02:18PM 32.6460 -86.8793 74° East  Level FlightAware Approximate
02:25PM 32.7294 -86.5224 74° East  Level FlightAware Approximate
02:26PM 32.7412 -86.4714 75° East  Level FlightAware Approximate
02:27PM 32.7531 -86.4203 75° East  Level FlightAware Approximate
02:28PM 32.7649 -86.3692 75° East  Level FlightAware Approximate
02:29PM 32.7766 -86.3182 75° East  Level FlightAware Approximate
02:30PM 32.7883 -86.2671 75° East  Level FlightAware Approximate
02:31PM 32.8001 -86.2160 75° East  Level FlightAware Approximate
02:31PM 32.8267 -86.1425 75° East 166 191 9,100  Level Atlanta Center
02:32PM 32.8118 -86.1649 75° East  Level FlightAware Approximate
02:32PM 32.8400 -86.0883 74° East 166 191 9,100  Level Atlanta Center
02:33PM 32.8234 -86.1137 75° East  Level FlightAware Approximate
02:33PM 32.8533 -86.0344 74° East 166 191 9,100  Level Atlanta Center
02:34PM 32.8351 -86.0626 75° East  Level FlightAware Approximate
02:34PM 32.8647 -85.9850 75° East 166 191 9,100  Level Atlanta Center
02:35PM 32.8467 -86.0114 75° East  Level FlightAware Approximate
02:35PM 32.8781 -85.9286 74° East 166 191 9,100  Level Atlanta Center
02:36PM 32.8584 -85.9603 75° East  Level FlightAware Approximate
02:36PM 32.8914 -85.8792 72° East 166 191 9,100  Level Atlanta Center
02:37PM 32.9025 -85.8253 76° East 166 191 9,100  Level Atlanta Center
02:38PM 32.9136 -85.7733 76° East 166 191 9,100  Level Atlanta Center
02:39PM 32.9269 -85.7217 73° East 166 191 9,100  Level Atlanta Center
02:40PM 32.9403 -85.6700 73° East 166 191 9,100  Level Atlanta Center
02:41PM 32.9658 -85.6258 55° Northeast 161 185 9,100  Level Atlanta Center
02:42PM 33.0039 -85.5969 32° Northeast 156 180 9,100  Level Atlanta Center
02:43PM 33.0478 -85.5728 25° Northeast 162 186 9,100  Level Atlanta Center
02:44PM 33.0900 -85.5439 30° Northeast 168 193 9,100 -240 Level Atlanta Center
02:46PM 33.1667 -85.5000 26° Northeast 178 205 8,600 -420 Descending Atlanta TRACON
02:47PM 33.2000 -85.4500 51° Northeast 184 212 8,000 -600 Descending Atlanta TRACON
02:48PM 33.2000 -85.4000 90° East 180 207 7,500 -540 Descending Atlanta TRACON
02:49PM 33.2167 -85.3333 73° East 175 201 7,000 -600 Descending Atlanta TRACON
02:50PM 33.2333 -85.2833 68° East 168 193 6,400 -480 Descending Atlanta TRACON
02:51PM 33.2500 -85.2500 59° Northeast 164 189 6,100 -240 Descending Atlanta TRACON
02:52PM 33.2667 -85.1833 73° East 159 183 6,000  Descending Atlanta TRACON
02:53PM 33.2833 -85.1333 68° East 153 176 6,100  Climbing Atlanta TRACON
02:54PM 33.3167 -85.1333 360° North 158 182 6,000 -120 Descending Atlanta TRACON
02:55PM 33.3667 -85.1167 16° North 160 184 5,900 -300 Descending Atlanta TRACON
02:56PM 33.4167 -85.1000 16° North 168 193 5,400 -480 Descending Atlanta TRACON
02:57PM 33.4667 -85.0833 16° North 168 193 5,000 -240 Descending Atlanta TRACON
02:58PM 33.5000 -85.0667 23° Northeast 159 183 5,000  Level Atlanta TRACON
02:59PM 33.5500 -85.0500 16° North 163 188 5,000  Level Atlanta TRACON
03:00PM 33.5833 -85.0500 360° North 162 186 5,000  Level Atlanta TRACON
03:01PM 33.6333 -85.0333 16° North 164 189 5,000  Level Atlanta TRACON
03:02PM 33.6667 -85.0500 337° Northwest 166 191 5,000  Level Atlanta TRACON
03:03PM 33.7333 -85.0500 360° North 195 224 5,000  Level Atlanta TRACON
03:04PM 33.7667 -85.0667 337° Northwest 165 190 5,000  Level Atlanta TRACON
03:05PM 33.8000 -85.0333 40° Northeast 160 184 5,000  Level Atlanta TRACON
03:06PM 33.8167 -84.9833 68° East 159 183 5,000  Level Atlanta TRACON
03:07PM 33.8333 -84.9333 68° East 157 181 5,000  Level Atlanta TRACON
03:08PM 33.8500 -84.8833 68° East 165 190 5,000  Level Atlanta TRACON
03:09PM 33.8500 -84.8167 90° East 160 184 5,000  Level Atlanta TRACON
03:10PM 33.8500 -84.7833 90° East 154 177 5,000  Level Atlanta TRACON
03:11PM 33.8500 -84.7167 90° East 162 186 5,000  Level Atlanta TRACON
03:12PM 33.8500 -84.6667 90° East 156 180 5,000  Level Atlanta TRACON
03:13PM 33.8667 -84.6167 68° East 154 177 5,000 -480 Level Atlanta TRACON
03:14PM 33.8667 -84.5667 90° East 162 186 4,100 -900 Descending Atlanta TRACON
03:15PM 33.8667 -84.5167 90° East 159 183 3,400 -600 Descending Atlanta TRACON
03:16PM 33.8667 -84.4667 90° East 147 169 3,000 -300 Descending Atlanta TRACON
03:17PM 33.8667 -84.4167 90° East 150 173 2,800 -420 Descending Atlanta TRACON
03:18PM 33.8667 -84.3667 90° East 155 178 2,300 -660 Descending Atlanta TRACON
03:19PM 33.8500 -84.3167 112° Southeast 124 143 1,500 -840 Descending Atlanta TRACON
03:21PM 33.8667 -84.3000 90° East  Level FlightAware Approximate
03:28PM 33.8756 -84.3020 90° East  Level Estimated